sensor_id;sensor_type;location;lat;lon;timestamp;P1;durP1;ratioP1;P2;durP2;ratioP2
16973;SDS011;8603;46.944;7.412;2023-02-15T00:21:48;29.57;;;17.40;;
16973;SDS011;8603;46.944;7.412;2023-02-15T00:31:21;25.00;;;14.37;;
16973;SDS011;8603;46.944;7.412;2023-02-15T00:34:29;23.27;;;14.17;;
16973;SDS011;8603;46.944;7.412;2023-02-15T00:40:31;30.87;;;15.13;;
16973;SDS011;8603;46.944;7.412;2023-02-15T00:43:37;28.07;;;14.70;;
16973;SDS011;8603;46.944;7.412;2023-02-15T01:16:52;26.90;;;14.70;;
16973;SDS011;8603;46.944;7.412;2023-02-15T04:59:11;18.37;;;10.23;;
16973;SDS011;8603;46.944;7.412;2023-02-15T05:08:25;18.53;;;10.03;;
16973;SDS011;8603;46.944;7.412;2023-02-15T05:10:50;17.60;;;10.30;;
16973;SDS011;8603;46.944;7.412;2023-02-15T05:13:16;17.10;;;10.33;;
16973;SDS011;8603;46.944;7.412;2023-02-15T05:15:46;22.00;;;10.57;;
16973;SDS011;8603;46.944;7.412;2023-02-15T05:18:15;19.50;;;11.17;;
16973;SDS011;8603;46.944;7.412;2023-02-15T05:20:42;18.80;;;10.47;;
16973;SDS011;8603;46.944;7.412;2023-02-15T05:23:08;15.57;;;10.23;;
16973;SDS011;8603;46.944;7.412;2023-02-15T05:25:34;16.63;;;9.97;;
16973;SDS011;8603;46.944;7.412;2023-02-15T05:28:18;20.03;;;10.83;;
16973;SDS011;8603;46.944;7.412;2023-02-15T05:30:44;20.83;;;11.00;;
16973;SDS011;8603;46.944;7.412;2023-02-15T05:33:12;16.23;;;10.40;;
16973;SDS011;8603;46.944;7.412;2023-02-15T05:35:38;20.23;;;11.20;;
16973;SDS011;8603;46.944;7.412;2023-02-15T05:38:04;19.70;;;12.13;;
16973;SDS011;8603;46.944;7.412;2023-02-15T05:40:29;19.50;;;10.83;;
16973;SDS011;8603;46.944;7.412;2023-02-15T05:42:58;17.80;;;10.57;;
16973;SDS011;8603;46.944;7.412;2023-02-15T05:45:35;16.03;;;9.67;;
16973;SDS011;8603;46.944;7.412;2023-02-15T05:48:01;18.60;;;10.30;;
16973;SDS011;8603;46.944;7.412;2023-02-15T05:50:27;17.77;;;10.13;;
16973;SDS011;8603;46.944;7.412;2023-02-15T05:52:52;17.63;;;10.40;;
16973;SDS011;8603;46.944;7.412;2023-02-15T05:55:18;18.93;;;9.97;;
16973;SDS011;8603;46.944;7.412;2023-02-15T05:57:44;18.63;;;10.53;;
16973;SDS011;8603;46.944;7.412;2023-02-15T06:00:10;19.80;;;10.70;;
16973;SDS011;8603;46.944;7.412;2023-02-15T06:02:37;17.40;;;10.03;;
16973;SDS011;8603;46.944;7.412;2023-02-15T06:05:03;18.93;;;10.50;;
16973;SDS011;8603;46.944;7.412;2023-02-15T06:07:30;16.93;;;9.33;;
16973;SDS011;8603;46.944;7.412;2023-02-15T06:09:55;15.33;;;9.03;;
16973;SDS011;8603;46.944;7.412;2023-02-15T06:12:32;15.37;;;8.93;;
16973;SDS011;8603;46.944;7.412;2023-02-15T06:14:58;18.83;;;8.90;;
16973;SDS011;8603;46.944;7.412;2023-02-15T06:17:24;22.80;;;11.03;;
16973;SDS011;8603;46.944;7.412;2023-02-15T06:19:50;17.90;;;10.43;;
16973;SDS011;8603;46.944;7.412;2023-02-15T06:22:18;18.53;;;10.03;;
16973;SDS011;8603;46.944;7.412;2023-02-15T06:24:45;18.43;;;9.90;;
16973;SDS011;8603;46.944;7.412;2023-02-15T06:27:11;17.03;;;10.27;;
16973;SDS011;8603;46.944;7.412;2023-02-15T06:29:37;17.83;;;10.27;;
16973;SDS011;8603;46.944;7.412;2023-02-15T06:32:02;15.50;;;9.90;;
16973;SDS011;8603;46.944;7.412;2023-02-15T06:34:28;19.37;;;10.17;;
16973;SDS011;8603;46.944;7.412;2023-02-15T06:36:54;17.10;;;9.43;;
16973;SDS011;8603;46.944;7.412;2023-02-15T06:39:19;16.60;;;10.67;;
16973;SDS011;8603;46.944;7.412;2023-02-15T06:41:45;17.97;;;10.97;;
16973;SDS011;8603;46.944;7.412;2023-02-15T06:44:11;18.27;;;9.83;;
16973;SDS011;8603;46.944;7.412;2023-02-15T06:46:36;20.57;;;10.17;;
16973;SDS011;8603;46.944;7.412;2023-02-15T06:49:02;16.50;;;10.50;;
16973;SDS011;8603;46.944;7.412;2023-02-15T06:51:28;17.17;;;11.30;;
16973;SDS011;8603;46.944;7.412;2023-02-15T06:53:54;22.27;;;11.53;;
16973;SDS011;8603;46.944;7.412;2023-02-15T06:56:19;21.40;;;12.00;;
16973;SDS011;8603;46.944;7.412;2023-02-15T06:58:45;22.07;;;12.30;;
16973;SDS011;8603;46.944;7.412;2023-02-15T07:01:11;23.17;;;12.53;;
16973;SDS011;8603;46.944;7.412;2023-02-15T07:03:37;21.97;;;13.37;;
16973;SDS011;8603;46.944;7.412;2023-02-15T07:06:03;25.40;;;15.20;;
16973;SDS011;8603;46.944;7.412;2023-02-15T07:08:33;22.70;;;13.93;;
16973;SDS011;8603;46.944;7.412;2023-02-15T07:11:00;24.83;;;15.97;;
16973;SDS011;8603;46.944;7.412;2023-02-15T07:13:44;22.30;;;15.57;;
16973;SDS011;8603;46.944;7.412;2023-02-15T07:16:11;25.23;;;16.00;;
16973;SDS011;8603;46.944;7.412;2023-02-15T07:18:37;20.13;;;13.83;;
16973;SDS011;8603;46.944;7.412;2023-02-15T07:21:03;19.47;;;13.77;;
16973;SDS011;8603;46.944;7.412;2023-02-15T07:23:32;14.33;;;10.57;;
16973;SDS011;8603;46.944;7.412;2023-02-15T07:26:02;12.57;;;9.60;;
16973;SDS011;8603;46.944;7.412;2023-02-15T07:28:29;14.07;;;9.93;;
16973;SDS011;8603;46.944;7.412;2023-02-15T07:30:54;11.93;;;8.90;;
16973;SDS011;8603;46.944;7.412;2023-02-15T07:33:20;10.27;;;8.00;;
16973;SDS011;8603;46.944;7.412;2023-02-15T07:35:55;10.40;;;8.27;;
16973;SDS011;8603;46.944;7.412;2023-02-15T07:38:22;13.13;;;10.77;;
16973;SDS011;8603;46.944;7.412;2023-02-15T07:40:51;12.63;;;9.60;;
16973;SDS011;8603;46.944;7.412;2023-02-15T07:43:16;12.93;;;8.27;;
16973;SDS011;8603;46.944;7.412;2023-02-15T07:45:42;9.20;;;7.00;;
16973;SDS011;8603;46.944;7.412;2023-02-15T07:48:08;8.77;;;5.93;;
16973;SDS011;8603;46.944;7.412;2023-02-15T07:50:34;8.37;;;6.23;;
16973;SDS011;8603;46.944;7.412;2023-02-15T07:53:03;7.63;;;6.20;;
16973;SDS011;8603;46.944;7.412;2023-02-15T07:55:29;9.30;;;7.25;;
16973;SDS011;8603;46.944;7.412;2023-02-15T07:57:55;8.65;;;7.38;;
16973;SDS011;8603;46.944;7.412;2023-02-15T08:00:21;9.25;;;6.57;;
16973;SDS011;8603;46.944;7.412;2023-02-15T08:02:56;8.60;;;7.15;;
16973;SDS011;8603;46.944;7.412;2023-02-15T08:05:40;9.48;;;6.35;;
16973;SDS011;8603;46.944;7.412;2023-02-15T08:08:08;7.80;;;6.45;;
16973;SDS011;8603;46.944;7.412;2023-02-15T08:10:57;8.55;;;6.80;;
16973;SDS011;8603;46.944;7.412;2023-02-15T08:16:39;9.65;;;6.43;;
16973;SDS011;8603;46.944;7.412;2023-02-15T08:19:20;10.05;;;7.45;;
16973;SDS011;8603;46.944;7.412;2023-02-15T08:22:06;8.40;;;6.55;;
16973;SDS011;8603;46.944;7.412;2023-02-15T08:24:36;7.05;;;6.13;;
16973;SDS011;8603;46.944;7.412;2023-02-15T08:27:03;8.25;;;6.47;;
16973;SDS011;8603;46.944;7.412;2023-02-15T08:29:30;7.55;;;6.68;;
16973;SDS011;8603;46.944;7.412;2023-02-15T08:31:57;7.20;;;6.43;;
16973;SDS011;8603;46.944;7.412;2023-02-15T08:34:27;9.10;;;6.68;;
16973;SDS011;8603;46.944;7.412;2023-02-15T08:36:55;8.95;;;6.90;;
16973;SDS011;8603;46.944;7.412;2023-02-15T08:39:21;7.78;;;6.97;;
16973;SDS011;8603;46.944;7.412;2023-02-15T08:41:47;7.50;;;6.70;;
16973;SDS011;8603;46.944;7.412;2023-02-15T08:44:14;7.43;;;6.20;;
16973;SDS011;8603;46.944;7.412;2023-02-15T08:46:41;7.60;;;6.60;;
16973;SDS011;8603;46.944;7.412;2023-02-15T08:49:08;8.05;;;6.25;;
16973;SDS011;8603;46.944;7.412;2023-02-15T08:51:37;8.57;;;7.07;;
16973;SDS011;8603;46.944;7.412;2023-02-15T08:54:07;8.55;;;5.68;;
16973;SDS011;8603;46.944;7.412;2023-02-15T08:56:37;14.48;;;9.80;;
16973;SDS011;8603;46.944;7.412;2023-02-15T08:59:13;11.40;;;9.35;;
16973;SDS011;8603;46.944;7.412;2023-02-15T09:02:09;5.93;;;5.18;;
16973;SDS011;8603;46.944;7.412;2023-02-15T09:05:11;5.38;;;4.05;;
16973;SDS011;8603;46.944;7.412;2023-02-15T09:07:42;5.55;;;4.63;;
16973;SDS011;8603;46.944;7.412;2023-02-15T09:10:08;6.82;;;3.97;;
16973;SDS011;8603;46.944;7.412;2023-02-15T09:12:36;7.38;;;4.60;;
16973;SDS011;8603;46.944;7.412;2023-02-15T09:15:02;5.40;;;4.53;;
16973;SDS011;8603;46.944;7.412;2023-02-15T09:17:28;5.40;;;4.47;;
16973;SDS011;8603;46.944;7.412;2023-02-15T09:19:59;5.57;;;4.20;;
16973;SDS011;8603;46.944;7.412;2023-02-15T09:22:24;4.22;;;3.78;;
16973;SDS011;8603;46.944;7.412;2023-02-15T09:24:50;4.72;;;4.00;;
16973;SDS011;8603;46.944;7.412;2023-02-15T09:27:16;5.05;;;3.85;;
16973;SDS011;8603;46.944;7.412;2023-02-15T09:29:41;4.03;;;3.63;;
16973;SDS011;8603;46.944;7.412;2023-02-15T09:32:07;3.83;;;3.08;;
16973;SDS011;8603;46.944;7.412;2023-02-15T09:34:33;6.75;;;3.80;;
16973;SDS011;8603;46.944;7.412;2023-02-15T09:36:59;4.28;;;3.60;;
16973;SDS011;8603;46.944;7.412;2023-02-15T09:39:26;4.53;;;3.78;;
16973;SDS011;8603;46.944;7.412;2023-02-15T09:45:13;4.73;;;3.87;;
16973;SDS011;8603;46.944;7.412;2023-02-15T09:50:49;5.10;;;4.30;;
16973;SDS011;8603;46.944;7.412;2023-02-15T09:53:31;6.50;;;4.80;;
16973;SDS011;8603;46.944;7.412;2023-02-15T09:56:30;5.57;;;4.47;;
16973;SDS011;8603;46.944;7.412;2023-02-15T10:02:34;7.27;;;4.93;;
16973;SDS011;8603;46.944;7.412;2023-02-15T10:05:29;7.47;;;5.27;;
16973;SDS011;8603;46.944;7.412;2023-02-15T10:14:03;6.63;;;4.43;;
16973;SDS011;8603;46.944;7.412;2023-02-15T10:16:56;6.60;;;4.77;;
16973;SDS011;8603;46.944;7.412;2023-02-15T10:28:51;6.70;;;4.40;;
16973;SDS011;8603;46.944;7.412;2023-02-15T10:31:23;6.27;;;4.50;;
16973;SDS011;8603;46.944;7.412;2023-02-15T10:40:46;8.37;;;5.70;;
16973;SDS011;8603;46.944;7.412;2023-02-15T10:57:04;9.60;;;6.20;;
16973;SDS011;8603;46.944;7.412;2023-02-15T11:09:13;13.03;;;7.37;;
16973;SDS011;8603;46.944;7.412;2023-02-15T11:11:44;11.23;;;7.37;;
16973;SDS011;8603;46.944;7.412;2023-02-15T11:17:46;10.73;;;7.00;;
16973;SDS011;8603;46.944;7.412;2023-02-15T13:50:12;12.70;;;7.43;;
16973;SDS011;8603;46.944;7.412;2023-02-15T13:57:08;12.83;;;6.50;;
16973;SDS011;8603;46.944;7.412;2023-02-15T16:29:53;19.10;;;10.20;;
16973;SDS011;8603;46.944;7.412;2023-02-15T17:13:25;17.90;;;11.07;;
16973;SDS011;8603;46.944;7.412;2023-02-15T17:41:18;24.97;;;14.03;;
16973;SDS011;8603;46.944;7.412;2023-02-15T17:51:03;29.63;;;14.07;;
16973;SDS011;8603;46.944;7.412;2023-02-15T17:54:19;22.90;;;13.00;;
16973;SDS011;8603;46.944;7.412;2023-02-15T18:41:54;21.80;;;12.80;;
16973;SDS011;8603;46.944;7.412;2023-02-15T18:44:25;22.93;;;13.03;;
16973;SDS011;8603;46.944;7.412;2023-02-15T18:46:51;20.93;;;12.10;;
16973;SDS011;8603;46.944;7.412;2023-02-15T18:49:18;22.23;;;14.03;;
16973;SDS011;8603;46.944;7.412;2023-02-15T18:51:47;18.47;;;12.37;;
16973;SDS011;8603;46.944;7.412;2023-02-15T18:54:17;19.03;;;12.37;;
16973;SDS011;8603;46.944;7.412;2023-02-15T18:56:48;22.40;;;12.67;;
16973;SDS011;8603;46.944;7.412;2023-02-15T18:59:25;20.88;;;13.45;;
16973;SDS011;8603;46.944;7.412;2023-02-15T19:01:52;20.27;;;12.57;;
16973;SDS011;8603;46.944;7.412;2023-02-15T19:04:18;20.20;;;12.57;;
16973;SDS011;8603;46.944;7.412;2023-02-15T19:06:53;22.43;;;12.17;;
16973;SDS011;8603;46.944;7.412;2023-02-15T19:09:22;23.70;;;12.63;;
16973;SDS011;8603;46.944;7.412;2023-02-15T19:11:51;20.70;;;12.50;;
16973;SDS011;8603;46.944;7.412;2023-02-15T19:14:23;21.07;;;12.60;;
16973;SDS011;8603;46.944;7.412;2023-02-15T19:16:51;23.43;;;14.07;;
16973;SDS011;8603;46.944;7.412;2023-02-15T19:19:20;23.30;;;13.30;;
16973;SDS011;8603;46.944;7.412;2023-02-15T19:21:46;21.50;;;12.77;;
16973;SDS011;8603;46.944;7.412;2023-02-15T19:24:32;21.77;;;13.37;;
16973;SDS011;8603;46.944;7.412;2023-02-15T19:27:22;22.87;;;13.37;;
16973;SDS011;8603;46.944;7.412;2023-02-15T19:29:55;23.37;;;12.97;;
16973;SDS011;8603;46.944;7.412;2023-02-15T19:32:40;21.57;;;13.43;;
16973;SDS011;8603;46.944;7.412;2023-02-15T19:35:13;24.47;;;14.07;;
16973;SDS011;8603;46.944;7.412;2023-02-15T19:37:40;27.00;;;14.90;;
16973;SDS011;8603;46.944;7.412;2023-02-15T19:40:15;31.73;;;16.70;;
16973;SDS011;8603;46.944;7.412;2023-02-15T19:42:44;27.30;;;14.37;;
16973;SDS011;8603;46.944;7.412;2023-02-15T19:45:24;24.70;;;14.20;;
16973;SDS011;8603;46.944;7.412;2023-02-15T19:47:51;24.83;;;14.13;;
16973;SDS011;8603;46.944;7.412;2023-02-15T19:50:28;26.47;;;14.03;;
16973;SDS011;8603;46.944;7.412;2023-02-15T19:52:55;23.30;;;13.43;;
16973;SDS011;8603;46.944;7.412;2023-02-15T19:55:26;17.20;;;11.07;;
16973;SDS011;8603;46.944;7.412;2023-02-15T19:57:56;20.43;;;11.73;;
16973;SDS011;8603;46.944;7.412;2023-02-15T20:00:25;18.90;;;11.93;;
16973;SDS011;8603;46.944;7.412;2023-02-15T20:02:52;20.27;;;12.13;;
16973;SDS011;8603;46.944;7.412;2023-02-15T20:05:19;24.33;;;12.73;;
16973;SDS011;8603;46.944;7.412;2023-02-15T20:07:49;22.03;;;12.80;;
16973;SDS011;8603;46.944;7.412;2023-02-15T20:12:43;21.70;;;13.20;;
16973;SDS011;8603;46.944;7.412;2023-02-15T20:17:49;22.87;;;12.90;;
16973;SDS011;8603;46.944;7.412;2023-02-15T20:20:16;23.47;;;13.13;;
16973;SDS011;8603;46.944;7.412;2023-02-15T20:22:43;19.13;;;11.63;;
16973;SDS011;8603;46.944;7.412;2023-02-15T20:25:30;23.37;;;11.37;;
16973;SDS011;8603;46.944;7.412;2023-02-15T20:28:08;19.90;;;11.07;;
16973;SDS011;8603;46.944;7.412;2023-02-15T20:30:51;17.47;;;10.70;;
16973;SDS011;8603;46.944;7.412;2023-02-15T20:33:18;18.90;;;9.87;;
16973;SDS011;8603;46.944;7.412;2023-02-15T20:35:45;21.17;;;11.37;;
16973;SDS011;8603;46.944;7.412;2023-02-15T20:38:18;21.67;;;12.17;;
16973;SDS011;8603;46.944;7.412;2023-02-15T20:40:50;21.47;;;12.70;;
16973;SDS011;8603;46.944;7.412;2023-02-15T20:43:35;22.03;;;12.10;;
16973;SDS011;8603;46.944;7.412;2023-02-15T20:46:11;20.30;;;12.60;;
16973;SDS011;8603;46.944;7.412;2023-02-15T20:48:43;22.40;;;13.03;;
16973;SDS011;8603;46.944;7.412;2023-02-15T20:51:18;23.07;;;13.00;;
16973;SDS011;8603;46.944;7.412;2023-02-15T20:53:46;28.67;;;15.13;;
16973;SDS011;8603;46.944;7.412;2023-02-15T20:56:15;26.00;;;14.37;;
16973;SDS011;8603;46.944;7.412;2023-02-15T20:58:47;19.27;;;12.80;;
16973;SDS011;8603;46.944;7.412;2023-02-15T21:01:13;20.47;;;12.77;;
16973;SDS011;8603;46.944;7.412;2023-02-15T21:03:39;25.77;;;13.50;;
16973;SDS011;8603;46.944;7.412;2023-02-15T21:06:05;21.60;;;13.13;;
16973;SDS011;8603;46.944;7.412;2023-02-15T21:08:32;25.53;;;13.97;;
16973;SDS011;8603;46.944;7.412;2023-02-15T21:10:59;22.80;;;13.50;;
16973;SDS011;8603;46.944;7.412;2023-02-15T21:13:26;26.87;;;13.77;;
16973;SDS011;8603;46.944;7.412;2023-02-15T21:15:56;25.00;;;13.80;;
16973;SDS011;8603;46.944;7.412;2023-02-15T21:18:32;22.20;;;13.47;;
16973;SDS011;8603;46.944;7.412;2023-02-15T21:20:59;30.37;;;16.90;;
16973;SDS011;8603;46.944;7.412;2023-02-15T21:23:28;26.10;;;14.40;;
16973;SDS011;8603;46.944;7.412;2023-02-15T21:26:05;22.27;;;12.57;;
16973;SDS011;8603;46.944;7.412;2023-02-15T21:28:37;23.83;;;13.80;;
16973;SDS011;8603;46.944;7.412;2023-02-15T21:31:07;26.43;;;14.50;;
16973;SDS011;8603;46.944;7.412;2023-02-15T21:33:43;24.27;;;13.50;;
16973;SDS011;8603;46.944;7.412;2023-02-15T21:36:12;22.07;;;11.73;;
16973;SDS011;8603;46.944;7.412;2023-02-15T21:38:40;24.33;;;13.30;;
16973;SDS011;8603;46.944;7.412;2023-02-15T21:41:10;22.87;;;12.60;;
16973;SDS011;8603;46.944;7.412;2023-02-15T21:44:09;18.90;;;11.17;;
16973;SDS011;8603;46.944;7.412;2023-02-15T21:47:07;15.77;;;9.80;;
16973;SDS011;8603;46.944;7.412;2023-02-15T21:50:05;16.53;;;9.90;;
16973;SDS011;8603;46.944;7.412;2023-02-15T21:52:52;15.67;;;9.20;;
16973;SDS011;8603;46.944;7.412;2023-02-15T21:55:18;17.50;;;9.63;;
16973;SDS011;8603;46.944;7.412;2023-02-15T21:57:44;17.53;;;9.97;;
16973;SDS011;8603;46.944;7.412;2023-02-15T22:00:20;17.17;;;10.03;;
16973;SDS011;8603;46.944;7.412;2023-02-15T22:02:48;18.50;;;10.83;;
16973;SDS011;8603;46.944;7.412;2023-02-15T22:05:16;17.37;;;10.27;;
16973;SDS011;8603;46.944;7.412;2023-02-15T22:07:44;17.97;;;10.30;;
16973;SDS011;8603;46.944;7.412;2023-02-15T22:10:11;19.73;;;10.47;;
16973;SDS011;8603;46.944;7.412;2023-02-15T22:12:37;22.13;;;11.40;;
16973;SDS011;8603;46.944;7.412;2023-02-15T22:15:04;20.77;;;12.33;;
16973;SDS011;8603;46.944;7.412;2023-02-15T22:17:31;20.40;;;11.03;;
16973;SDS011;8603;46.944;7.412;2023-02-15T22:19:58;19.53;;;12.07;;
16973;SDS011;8603;46.944;7.412;2023-02-15T22:22:24;20.23;;;12.13;;
16973;SDS011;8603;46.944;7.412;2023-02-15T22:24:50;21.10;;;13.17;;
16973;SDS011;8603;46.944;7.412;2023-02-15T22:27:24;22.70;;;12.53;;
16973;SDS011;8603;46.944;7.412;2023-02-15T22:29:52;24.30;;;12.57;;
16973;SDS011;8603;46.944;7.412;2023-02-15T22:32:22;23.13;;;13.60;;
16973;SDS011;8603;46.944;7.412;2023-02-15T22:34:50;21.27;;;12.10;;
16973;SDS011;8603;46.944;7.412;2023-02-15T22:37:16;21.73;;;12.73;;
16973;SDS011;8603;46.944;7.412;2023-02-15T22:39:42;21.67;;;12.47;;
16973;SDS011;8603;46.944;7.412;2023-02-15T22:42:15;24.00;;;13.93;;
16973;SDS011;8603;46.944;7.412;2023-02-15T22:44:48;24.40;;;13.47;;
16973;SDS011;8603;46.944;7.412;2023-02-15T22:47:19;21.53;;;13.23;;
16973;SDS011;8603;46.944;7.412;2023-02-15T22:49:46;22.17;;;13.17;;
16973;SDS011;8603;46.944;7.412;2023-02-15T22:52:12;22.87;;;13.70;;
16973;SDS011;8603;46.944;7.412;2023-02-15T22:54:38;22.83;;;13.83;;
16973;SDS011;8603;46.944;7.412;2023-02-15T22:57:04;25.23;;;13.07;;
16973;SDS011;8603;46.944;7.412;2023-02-15T22:59:30;22.40;;;13.40;;
16973;SDS011;8603;46.944;7.412;2023-02-15T23:01:58;21.60;;;13.40;;
16973;SDS011;8603;46.944;7.412;2023-02-15T23:05:02;17.80;;;12.30;;
16973;SDS011;8603;46.944;7.412;2023-02-15T23:07:28;24.60;;;13.70;;
16973;SDS011;8603;46.944;7.412;2023-02-15T23:09:53;23.60;;;13.97;;
16973;SDS011;8603;46.944;7.412;2023-02-15T23:12:24;20.60;;;12.33;;
16973;SDS011;8603;46.944;7.412;2023-02-15T23:14:52;19.63;;;11.50;;
16973;SDS011;8603;46.944;7.412;2023-02-15T23:17:19;18.63;;;11.27;;
16973;SDS011;8603;46.944;7.412;2023-02-15T23:19:45;21.87;;;12.77;;
16973;SDS011;8603;46.944;7.412;2023-02-15T23:22:14;23.73;;;11.57;;
16973;SDS011;8603;46.944;7.412;2023-02-15T23:24:40;26.20;;;11.93;;
16973;SDS011;8603;46.944;7.412;2023-02-15T23:27:09;24.07;;;13.93;;
16973;SDS011;8603;46.944;7.412;2023-02-15T23:30:18;20.07;;;11.60;;
16973;SDS011;8603;46.944;7.412;2023-02-15T23:32:44;19.07;;;11.33;;
16973;SDS011;8603;46.944;7.412;2023-02-15T23:35:17;20.83;;;10.63;;
16973;SDS011;8603;46.944;7.412;2023-02-15T23:37:44;17.53;;;10.40;;
16973;SDS011;8603;46.944;7.412;2023-02-15T23:40:14;20.33;;;11.30;;
16973;SDS011;8603;46.944;7.412;2023-02-15T23:42:59;17.57;;;12.07;;
16973;SDS011;8603;46.944;7.412;2023-02-15T23:45:24;19.63;;;11.77;;
16973;SDS011;8603;46.944;7.412;2023-02-15T23:47:50;20.47;;;11.43;;
16973;SDS011;8603;46.944;7.412;2023-02-15T23:50:35;18.00;;;11.07;;
16973;SDS011;8603;46.944;7.412;2023-02-15T23:53:01;21.33;;;11.80;;
16973;SDS011;8603;46.944;7.412;2023-02-15T23:55:30;24.13;;;12.57;;
16973;SDS011;8603;46.944;7.412;2023-02-15T23:58:02;19.90;;;11.83;;
